Time;durP1;ratioP1;P1;durP2;ratioP2;P2;SDS_P1;SDS_P2;PMS_P1;PMS_P2;Temp;Humidity;BMP_temperature;BMP_pressure;BME280_temperature;BME280_humidity;BME280_pressure;Samples;Min_cycle;Max_cycle;Signal;HPM_P1;HPM_P2
2023/03/29 00:00:23;;;;;;;;;;;;;;;;;;5024578;28;43629;-81
2023/03/29 00:02:49;;;;;;;;;;;;;;;;;;5024518;28;42932;-82
2023/03/29 00:05:15;;;;;;;;;;;;;;;;;;5023065;28;43567;-80
2023/03/29 00:07:41;;;;;;;;;;;;;;;;;;5024033;28;42975;-82
2023/03/29 00:10:08;;;;;;;;;;;;;;;;;;5023754;28;42980;-81
2023/03/29 00:12:34;;;;;;;;;;;;;;;;;;5023585;28;42944;-82
2023/03/29 00:15:00;;;;;;;;;;;;;;;;;;5023906;28;42821;-81
2023/03/29 00:17:26;;;;;;;;;;;;;;;;;;5022624;28;43193;-81
2023/03/29 00:19:52;;;;;;;;;;;;;;;;;;5023556;28;43681;-81
2023/03/29 00:22:18;;;;;;;;;;;;;;;;;;5023719;28;43679;-81
2023/03/29 00:24:46;;;;;;;;;;;;;;;;;;5018006;28;42976;-81
2023/03/29 00:27:12;;;;;;;;;;;;;;;;;;5014590;28;43147;-81
2023/03/29 00:29:38;;;;;;;;;;;;;;;;;;5017618;28;44574;-81
2023/03/29 00:32:04;;;;;;;;;;;;;;;;;;5013713;28;43093;-82
2023/03/29 00:34:30;;;;;;;;;;;;;;;;;;5020441;28;42997;-82
2023/03/29 00:36:56;;;;;;;;;;;;;;;;;;5022897;28;42949;-81
2023/03/29 00:39:22;;;;;;;;;;;;;;;;;;5023890;28;43270;-80
2023/03/29 00:41:48;;;;;;;;;;;;;;;;;;5023410;28;43062;-82
2023/03/29 00:44:14;;;;;;;;;;;;;;;;;;5022137;28;42988;-82
2023/03/29 00:46:40;;;;;;;;;;;;;;;;;;5023300;28;43051;-82
2023/03/29 00:49:06;;;;;;;;;;;;;;;;;;5021868;28;43360;-82
2023/03/29 00:51:33;;;;;;;;;;;;;;;;;;5022928;28;43529;-81
2023/03/29 00:53:59;;;;;;;;;;;;;;;;;;5022537;28;42971;-81
2023/03/29 00:56:26;;;;;;;;;;;;;;;;;;5019300;28;42995;-81
2023/03/29 00:58:52;;;;;;;;;;;;;;;;;;5023777;28;43732;-81
2023/03/29 01:01:18;;;;;;;;;;;;;;;;;;5022939;28;43081;-81
2023/03/29 01:03:45;;;;;;;;;;;;;;;;;;5023538;28;43113;-82
2023/03/29 01:06:10;;;;;;;;;;;;;;;;;;5022676;28;43095;-82
2023/03/29 01:08:36;;;;;;;;;;;;;;;;;;5023657;28;42868;-82
2023/03/29 01:11:02;;;;;;;;;;;;;;;;;;5023562;28;43022;-82
2023/03/29 01:13:28;;;;;;;;;;;;;;;;;;5023194;28;43921;-82
2023/03/29 01:15:54;;;;;;;;;;;;;;;;;;5022612;28;42877;-81
2023/03/29 01:18:20;;;;;;;;;;;;;;;;;;5022696;28;43058;-81
2023/03/29 01:20:47;;;;;;;;;;;;;;;;;;5022228;28;43241;-82
2023/03/29 01:23:14;;;;;;;;;;;;;;;;;;5023243;28;43663;-82
2023/03/29 01:25:40;;;;;;;;;;;;;;;;;;5023856;28;43043;-82
2023/03/29 01:28:06;;;;;;;;;;;;;;;;;;5027316;28;42985;-82
2023/03/29 01:30:32;;;;;;;;;;;;;;;;;;5027591;28;42940;-81
2023/03/29 01:32:58;;;;;;;;;;;;;;;;;;5023278;28;43536;-81
2023/03/29 01:35:24;;;;;;;;;;;;;;;;;;5026432;28;43321;-80
2023/03/29 01:37:51;;;;;;;;;;;;;;;;;;5026428;28;42811;-81
2023/03/29 01:40:17;;;;;;;;;;;;;;;;;;5026693;28;43393;-82
2023/03/29 01:42:43;;;;;;;;;;;;;;;;;;5026567;28;42872;-80
2023/03/29 01:45:09;;;;;;;;;;;;;;;;;;5026996;28;43063;-82
2023/03/29 01:47:35;;;;;;;;;;;;;;;;;;5026911;28;42957;-81
2023/03/29 01:50:01;;;;;;;;;;;;;;;;;;5008580;28;42961;-80
2023/03/29 01:52:27;;;;;;;;;;;;;;;;;;5026153;28;42877;-80
2023/03/29 01:54:52;;;;;;;;;;;;;;;;;;5026707;28;42875;-82
2023/03/29 01:57:18;;;;;;;;;;;;;;;;;;5026782;28;43892;-81
2023/03/29 01:59:44;;;;;;;;;;;;;;;;;;5026160;28;43026;-81
2023/03/29 02:02:10;;;;;;;;;;;;;;;;;;5025674;28;43116;-80
2023/03/29 02:04:36;;;;;;;;;;;;;;;;;;5025829;28;42957;-80
2023/03/29 02:07:02;;;;;;;;;;;;;;;;;;5026298;28;42982;-81
2023/03/29 02:09:28;;;;;;;;;;;;;;;;;;5023560;28;43066;-80
2023/03/29 02:11:54;;;;;;;;;;;;;;;;;;5013779;28;43239;-81
2023/03/29 02:14:20;;;;;;;;;;;;;;;;;;5025336;28;43237;-81
2023/03/29 02:16:48;;;;;;;;;;;;;;;;;;5025377;28;42894;-80
2023/03/29 02:19:14;;;;;;;;;;;;;;;;;;5025219;28;42843;-81
2023/03/29 02:21:40;;;;;;;;;;;;;;;;;;5024915;28;43919;-81
2023/03/29 02:24:06;;;;;;;;;;;;;;;;;;5025640;28;42940;-82
2023/03/29 02:26:32;;;;;;;;;;;;;;;;;;5026122;28;43141;-80
2023/03/29 02:28:57;;;;;;;;;;;;;;;;;;5027141;28;43068;-81
2023/03/29 02:31:23;;;;;;;;;;;;;;;;;;5025272;28;43173;-79
2023/03/29 02:33:53;;;;;;;;;;;;;;;;;;5025512;28;42999;-80
2023/03/29 02:36:19;;;;;;;;;;;;;;;;;;5023533;28;43519;-79
2023/03/29 02:38:46;;;;;;;;;;;;;;;;;;5024808;28;43057;-79
2023/03/29 02:41:12;;;;;;;;;;;;;;;;;;5025734;28;43967;-79
2023/03/29 02:43:38;;;;;;;;;;;;;;;;;;5025555;28;42986;-79
2023/03/29 02:46:04;;;;;;;;;;;;;;;;;;5025556;28;43695;-80
2023/03/29 02:48:29;;;;;;;;;;;;;;;;;;5025724;28;43147;-80
2023/03/29 02:50:55;;;;;;;;;;;;;;;;;;5024990;28;43585;-80
2023/03/29 02:53:21;;;;;;;;;;;;;;;;;;5024593;28;43013;-81
2023/03/29 02:55:47;;;;;;;;;;;;;;;;;;5024494;28;43214;-82
2023/03/29 02:58:14;;;;;;;;;;;;;;;;;;5023935;28;43002;-81
2023/03/29 03:00:41;;;;;;;;;;;;;;;;;;5025774;28;43710;-80
2023/03/29 03:03:07;;;;;;;;;;;;;;;;;;5025451;28;42985;-81
2023/03/29 03:05:32;;;;;;;;;;;;;;;;;;5035449;28;42879;-79
2023/03/29 03:07:58;;;;;;;;;;;;;;;;;;5025450;28;43229;-80
2023/03/29 03:10:24;;;;;;;;;;;;;;;;;;5017575;28;43273;-79
2023/03/29 03:12:50;;;;;;;;;;;;;;;;;;5023274;28;42928;-81
2023/03/29 03:15:16;;;;;;;;;;;;;;;;;;5023974;28;43088;-81
2023/03/29 03:17:43;;;;;;;;;;;;;;;;;;5022735;28;43542;-80
2023/03/29 03:20:12;;;;;;;;;;;;;;;;;;5023915;28;43045;-83
2023/03/29 03:22:39;;;;;;;;;;;;;;;;;;5023972;28;43461;-79
2023/03/29 03:25:05;;;;;;;;;;;;;;;;;;5007004;28;45072;-83
2023/03/29 03:27:32;;;;;;;;;;;;;;;;;;5024385;28;42997;-80
2023/03/29 03:29:58;;;;;;;;;;;;;;;;;;5023942;28;43968;-82
2023/03/29 03:32:24;;;;;;;;;;;;;;;;;;5024013;28;42763;-83
2023/03/29 03:34:50;;;;;;;;;;;;;;;;;;5022773;28;42950;-83
2023/03/29 03:37:17;;;;;;;;;;;;;;;;;;5022848;28;43412;-79
2023/03/29 03:39:42;;;;;;;;;;;;;;;;;;5013638;28;43079;-80
2023/03/29 03:42:08;;;;;;;;;;;;;;;;;;5024588;28;43003;-80
2023/03/29 03:44:34;;;;;;;;;;;;;;;;;;5024969;28;43009;-81
2023/03/29 03:47:00;;;;;;;;;;;;;;;;;;5024437;28;43256;-80
2023/03/29 03:49:26;;;;;;;;;;;;;;;;;;5020204;28;43643;-80
2023/03/29 03:51:52;;;;;;;;;;;;;;;;;;5018776;28;43002;-80
2023/03/29 03:54:18;;;;;;;;;;;;;;;;;;5024390;28;42976;-81
2023/03/29 03:56:44;;;;;;;;;;;;;;;;;;5024339;28;43214;-79
2023/03/29 03:59:10;;;;;;;;;;;;;;;;;;5023703;28;43060;-80
2023/03/29 04:01:36;;;;;;;;;;;;;;;;;;5024657;28;42982;-81
2023/03/29 04:04:03;;;;;;;;;;;;;;;;;;5006161;28;44623;-83
2023/03/29 04:06:29;;;;;;;;;;;;;;;;;;5023585;28;43024;-80
2023/03/29 04:08:55;;;;;;;;;;;;;;;;;;5024147;28;42892;-83
2023/03/29 04:11:21;;;;;;;;;;;;;;;;;;5023859;28;42921;-83
2023/03/29 04:13:47;;;;;;;;;;;;;;;;;;5024035;28;43287;-82
2023/03/29 04:16:13;;;;;;;;;;;;;;;;;;5023567;28;43028;-83
2023/03/29 04:18:39;;;;;;;;;;;;;;;;;;5022595;28;42850;-84
2023/03/29 04:21:05;;;;;;;;;;;;;;;;;;5023804;28;42932;-80
2023/03/29 04:23:30;;;;;;;;;;;;;;;;;;5024381;28;43228;-80
2023/03/29 04:25:56;;;;;;;;;;;;;;;;;;5023432;28;43067;-80
2023/03/29 04:28:22;;;;;;;;;;;;;;;;;;5023267;28;43474;-80
2023/03/29 04:30:48;;;;;;;;;;;;;;;;;;5023909;28;42976;-80
2023/03/29 04:33:14;;;;;;;;;;;;;;;;;;5028667;28;43464;-79
2023/03/29 04:35:41;;;;;;;;;;;;;;;;;;5022522;28;42989;-79
2023/03/29 04:38:08;;;;;;;;;;;;;;;;;;5021760;28;43390;-83
2023/03/29 04:40:34;;;;;;;;;;;;;;;;;;5022188;28;43239;-80
2023/03/29 04:43:01;;;;;;;;;;;;;;;;;;4999558;28;44057;-80
2023/03/29 04:45:27;;;;;;;;;;;;;;;;;;5005454;28;42992;-81
2023/03/29 04:47:53;;;;;;;;;;;;;;;;;;5016666;28;42961;-78
2023/03/29 04:50:19;;;;;;;;;;;;;;;;;;5021504;28;43845;-78
2023/03/29 04:52:45;;;;;;;;;;;;;;;;;;5013828;28;44052;-80
2023/03/29 04:55:11;;;;;;;;;;;;;;;;;;5016038;28;43103;-79
2023/03/29 04:57:37;;;;;;;;;;;;;;;;;;5023430;28;42907;-86
2023/03/29 05:00:07;;;;;;;;;;;;;;;;;;5023175;28;43872;-87
2023/03/29 05:02:33;;;;;;;;;;;;;;;;;;4995422;28;45393;-87
2023/03/29 05:04:59;;;;;;;;;;;;;;;;;;5020967;28;43298;-88
2023/03/29 05:07:25;;;;;;;;;;;;;;;;;;5005046;28;44565;-88
2023/03/29 05:09:51;;;;;;;;;;;;;;;;;;5023767;28;42929;-88
2023/03/29 05:12:16;;;;;;;;;;;;;;;;;;5022123;28;42971;-86
2023/03/29 05:14:42;;;;;;;;;;;;;;;;;;5023020;28;43029;-86
2023/03/29 05:17:08;;;;;;;;;;;;;;;;;;5022845;28;43047;-87
2023/03/29 05:19:40;;;;;;;;;;;;;;;;;;5023779;28;42835;-87
2023/03/29 05:22:06;;;;;;;;;;;;;;;;;;5022751;28;43246;-86
2023/03/29 05:24:32;;;;;;;;;;;;;;;;;;5002831;28;43153;-84
2023/03/29 05:26:58;;;;;;;;;;;;;;;;;;5022098;28;43639;-83
2023/03/29 05:29:24;;;;;;;;;;;;;;;;;;5021021;28;43039;-87
2023/03/29 05:31:51;;;;;;;;;;;;;;;;;;4995297;28;44515;-87
2023/03/29 05:34:17;;;;;;;;;;;;;;;;;;5009225;28;42954;-86
2023/03/29 05:36:44;;;;;;;;;;;;;;;;;;4995060;28;45313;-84
2023/03/29 05:39:10;;;;;;;;;;;;;;;;;;5023333;28;43000;-84
2023/03/29 05:41:36;;;;;;;;;;;;;;;;;;5021220;28;43839;-83
2023/03/29 05:44:02;;;;;;;;;;;;;;;;;;5018797;28;43016;-83
2023/03/29 05:46:30;;;;;;;;;;;;;;;;;;5018153;28;42972;-84
2023/03/29 05:48:56;;;;;;;;;;;;;;;;;;5022386;28;42945;-83
2023/03/29 05:51:24;;;;;;;;;;;;;;;;;;5005302;28;44632;-80
2023/03/29 05:53:50;;;;;;;;;;;;;;;;;;5023392;28;43060;-90
2023/03/29 05:56:32;;;;;;;;;;;;;;;;;;;;;
2023/03/29 05:59:00;;;;;;;;;;;;;;;;;;5002254;28;68743;-89
2023/03/29 06:01:27;;;;;;;;;;;;;;;;;;4985354;28;44584;-88
2023/03/29 06:03:56;;;;;;;;;;;;;;;;;;4985935;28;42874;-89
2023/03/29 06:06:30;;;;;;;;;;;;;;;;;;5003484;28;43042;-87
2023/03/29 06:08:56;;;;;;;;;;;;;;;;;;4979852;28;42843;-89
2023/03/29 06:11:23;;;;;;;;;;;;;;;;;;4985292;28;44890;-87
2023/03/29 06:13:49;;;;;;;;;;;;;;;;;;5008041;28;42996;-89
2023/03/29 06:16:17;;;;;;;;;;;;;;;;;;5011509;28;43634;-90
2023/03/29 06:18:43;;;;;;;;;;;;;;;;;;5131276;23;43957;-88
2023/03/29 06:21:09;;;;;;;;;;;;;;;;;;5008469;28;44608;-90
2023/03/29 06:23:35;;;;;;;;;;;;;;;;;;5022896;28;43100;-92
2023/03/29 06:26:01;;;;;;;;;;;;;;;;;;5023258;28;44312;-90
2023/03/29 06:28:27;;;;;;;;;;;;;;;;;;5017398;28;42873;-87
2023/03/29 06:30:55;;;;;;;;;;;;;;;;;;5026627;28;43396;-83
2023/03/29 06:33:21;;;;;;;;;;;;;;;;;;5026788;28;42936;-83
2023/03/29 06:35:47;;;;;;;;;;;;;;;;;;5014174;28;43016;-83
2023/03/29 06:38:14;;;;;;;;;;;;;;;;;;5026346;28;43091;-82
2023/03/29 06:40:39;;;;;;;;;;;;;;;;;;5002190;28;43854;-83
2023/03/29 06:43:06;;;;;;;;;;;;;;;;;;5019862;28;43088;-83
2023/03/29 06:45:32;;;;;;;;;;;;;;;;;;5026084;28;42816;-82
2023/03/29 06:47:58;;;;;;;;;;;;;;;;;;5021250;28;42965;-83
2023/03/29 06:50:24;;;;;;;;;;;;;;;;;;5012719;28;44806;-84
2023/03/29 06:52:50;;;;;;;;;;;;;;;;;;4991727;28;42986;-82
2023/03/29 06:55:17;;;;;;;;;;;;;;;;;;5022396;28;42842;-84
2023/03/29 06:57:43;;;;;;;;;;;;;;;;;;5022964;28;43183;-83
2023/03/29 07:00:13;;;;;;;;;;;;;;;;;;5025388;28;43541;-83
2023/03/29 07:02:40;;;;;;;;;;;;;;;;;;5023604;28;42958;-86
2023/03/29 07:05:10;;;;;;;;;;;;;;;;;;5008258;28;45134;-83
2023/03/29 07:07:52;;;;;;;;;;;;;;;;;;5025035;28;43063;-84
2023/03/29 07:10:18;;;;;;;;;;;;;;;;;;5024404;28;44450;-83
2023/03/29 07:12:45;;;;;;;;;;;;;;;;;;5024918;28;43034;-83
2023/03/29 07:15:10;;;;;;;;;;;;;;;;;;5026016;28;43021;-83
2023/03/29 07:17:36;;;;;;;;;;;;;;;;;;5025387;28;43373;-83
2023/03/29 07:20:07;;;;;;;;;;;;;;;;;;5024874;28;43022;-82
2023/03/29 07:22:32;;;;;;;;;;;;;;;;;;5025384;28;43010;-83
2023/03/29 07:24:59;;;;;;;;;;;;;;;;;;5011338;28;43677;-81
2023/03/29 07:27:25;;;;;;;;;;;;;;;;;;5026061;28;42977;-83
2023/03/29 07:29:51;;;;;;;;;;;;;;;;;;5025789;28;43570;-83
2023/03/29 07:32:17;;;;;;;;;;;;;;;;;;5025764;28;43006;-83
2023/03/29 07:34:43;;;;;;;;;;;;;;;;;;5025492;28;42904;-83
2023/03/29 07:37:09;;;;;;;;;;;;;;;;;;5025194;28;42869;-83
2023/03/29 07:39:36;;;;;;;;;;;;;;;;;;5022331;28;44392;-83
2023/03/29 07:42:02;;;;;;;;;;;;;;;;;;5024911;28;43063;-82
2023/03/29 07:44:28;;;;;;;;;;;;;;;;;;5025158;28;43035;-82
2023/03/29 07:46:54;;;;;;;;;;;;;;;;;;5025590;28;42945;-82
2023/03/29 07:49:20;;;;;;;;;;;;;;;;;;5025153;28;43905;-83
2023/03/29 07:51:46;;;;;;;;;;;;;;;;;;5025513;28;43064;-82
2023/03/29 07:54:12;;;;;;;;;;;;;;;;;;4998304;28;43512;-82
2023/03/29 07:56:38;;;;;;;;;;;;;;;;;;5025063;28;43071;-82
2023/03/29 07:59:04;;;;;;;;;;;;;;;;;;5022018;28;44727;-83
2023/03/29 08:01:30;;;;;;;;;;;;;;;;;;5021942;28;42954;-83
2023/03/29 08:03:56;;;;;;;;;;;;;;;;;;5024759;28;43983;-82
2023/03/29 08:06:21;;;;;;;;;;;;;;;;;;5024997;28;42952;-82
2023/03/29 08:08:47;;;;;;;;;;;;;;;;;;5032115;28;43148;-83
2023/03/29 08:11:14;;;;;;;;;;;;;;;;;;5029675;28;42961;-83
2023/03/29 08:13:40;;;;;;;;;;;;;;;;;;5024472;28;42980;-82
2023/03/29 08:16:06;;;;;;;;;;;;;;;;;;5024908;28;42932;-82
2023/03/29 08:18:33;;;;;;;;;;;;;;;;;;5024499;28;42845;-83
2023/03/29 08:20:59;;;;;;;;;;;;;;;;;;5025107;28;43022;-83
2023/03/29 08:23:25;;;;;;;;;;;;;;;;;;5024881;28;42891;-83
2023/03/29 08:25:51;;;;;;;;;;;;;;;;;;5024822;28;42957;-83
2023/03/29 08:28:17;;;;;;;;;;;;;;;;;;5024459;28;43731;-83
2023/03/29 08:30:43;;;;;;;;;;;;;;;;;;5025151;28;43199;-82
2023/03/29 08:33:09;;;;;;;;;;;;;;;;;;5024854;28;43504;-83
2023/03/29 08:35:35;;;;;;;;;;;;;;;;;;5023959;28;43244;-82
2023/03/29 08:38:01;;;;;;;;;;;;;;;;;;5024184;28;42882;-82
2023/03/29 08:40:28;;;;;;;;;;;;;;;;;;5023878;28;42956;-82
2023/03/29 08:42:55;;;;;;;;;;;;;;;;;;5024032;28;42956;-83
2023/03/29 08:45:21;;;;;;;;;;;;;;;;;;5007422;28;42917;-83
2023/03/29 08:47:48;;;;;;;;;;;;;;;;;;5023790;28;43360;-83
2023/03/29 08:50:14;;;;;;;;;;;;;;;;;;5023312;28;43010;-83
2023/03/29 08:52:41;;;;;;;;;;;;;;;;;;5023647;28;43551;-82
2023/03/29 08:55:07;;;;;;;;;;;;;;;;;;5023554;28;42961;-83
2023/03/29 08:57:33;;;;;;;;;;;;;;;;;;5023798;28;43697;-83
2023/03/29 08:59:59;;;;;;;;;;;;;;;;;;5024251;28;43100;-83
2023/03/29 09:02:25;;;;;;;;;;;;;;;;;;5023478;28;43561;-83
2023/03/29 09:04:51;;;;;;;;;;;;;;;;;;5023877;28;42838;-83
2023/03/29 09:07:17;;;;;;;;;;;;;;;;;;5024293;28;43085;-83
2023/03/29 09:09:43;;;;;;;;;;;;;;;;;;5023787;28;42929;-82
2023/03/29 09:12:09;;;;;;;;;;;;;;;;;;5024634;28;43483;-82
2023/03/29 09:14:35;;;;;;;;;;;;;;;;;;5008012;28;42989;-82
2023/03/29 09:17:01;;;;;;;;;;;;;;;;;;5023912;28;43319;-84
2023/03/29 09:19:27;;;;;;;;;;;;;;;;;;5023641;28;42965;-84
2023/03/29 09:21:53;;;;;;;;;;;;;;;;;;5024066;28;43924;-84
2023/03/29 09:24:19;;;;;;;;;;;;;;;;;;5023917;28;42947;-83
2023/03/29 09:26:44;;;;;;;;;;;;;;;;;;5024111;28;43625;-84
2023/03/29 09:29:12;;;;;;;;;;;;;;;;;;5024061;28;43134;-84
2023/03/29 09:31:38;;;;;;;;;;;;;;;;;;5023597;28;43531;-84
2023/03/29 09:34:03;;;;;;;;;;;;;;;;;;5023553;28;43022;-84
2023/03/29 09:36:29;;;;;;;;;;;;;;;;;;5021823;28;44067;-85
2023/03/29 09:38:55;;;;;;;;;;;;;;;;;;5023536;28;43032;-84
2023/03/29 09:41:21;;;;;;;;;;;;;;;;;;5023733;28;42959;-84
2023/03/29 09:43:47;;;;;;;;;;;;;;;;;;5024023;28;42963;-84
2023/03/29 09:46:14;;;;;;;;;;;;;;;;;;5023777;28;43902;-83
2023/03/29 09:48:40;;;;;;;;;;;;;;;;;;5026445;28;42918;-84
2023/03/29 09:51:06;;;;;;;;;;;;;;;;;;5026612;28;43563;-83
2023/03/29 09:53:32;;;;;;;;;;;;;;;;;;5026281;28;42927;-83
2023/03/29 09:55:58;;;;;;;;;;;;;;;;;;5026350;28;43016;-84
2023/03/29 09:58:24;;;;;;;;;;;;;;;;;;5026134;28;42865;-84
2023/03/29 10:00:50;;;;;;;;;;;;;;;;;;5026535;28;44516;-83
2023/03/29 10:03:16;;;;;;;;;;;;;;;;;;5026237;28;43220;-83
2023/03/29 10:05:42;;;;;;;;;;;;;;;;;;5000640;28;44849;-84
2023/03/29 10:08:08;;;;;;;;;;;;;;;;;;5021515;28;42869;-84
2023/03/29 10:10:34;;;;;;;;;;;;;;;;;;5026749;28;43550;-84
2023/03/29 10:13:00;;;;;;;;;;;;;;;;;;5026984;28;42858;-84
2023/03/29 10:15:25;;;;;;;;;;;;;;;;;;5026795;28;42874;-84
2023/03/29 10:17:51;;;;;;;;;;;;;;;;;;5026409;28;42974;-84
2023/03/29 10:20:17;;;;;;;;;;;;;;;;;;5026745;28;42974;-83
2023/03/29 10:22:43;;;;;;;;;;;;;;;;;;5027008;28;43104;-83
2023/03/29 10:25:09;;;;;;;;;;;;;;;;;;5026834;28;43660;-83
2023/03/29 10:27:35;;;;;;;;;;;;;;;;;;5025834;28;42970;-83
2023/03/29 10:30:01;;;;;;;;;;;;;;;;;;5026245;28;42854;-84
2023/03/29 10:32:28;;;;;;;;;;;;;;;;;;5026453;28;43623;-84
2023/03/29 10:34:54;;;;;;;;;;;;;;;;;;5026313;28;43500;-84
2023/03/29 10:37:20;;;;;;;;;;;;;;;;;;5026567;28;42920;-83
2023/03/29 10:39:45;;;;;;;;;;;;;;;;;;5026521;28;42837;-84
2023/03/29 10:42:12;;;;;;;;;;;;;;;;;;5027893;28;43027;-84
2023/03/29 10:44:38;;;;;;;;;;;;;;;;;;5024743;28;44823;-84
2023/03/29 10:47:04;;;;;;;;;;;;;;;;;;5024439;28;43115;-83
2023/03/29 10:49:30;;;;;;;;;;;;;;;;;;5019514;28;45489;-83
2023/03/29 10:51:56;;;;;;;;;;;;;;;;;;5026284;28;42982;-83
2023/03/29 10:54:23;;;;;;;;;;;;;;;;;;5026421;28;43407;-83
2023/03/29 10:56:48;;;;;;;;;;;;;;;;;;5025876;28;42911;-83
2023/03/29 10:59:15;;;;;;;;;;;;;;;;;;5026145;28;42987;-82
2023/03/29 11:01:41;;;;;;;;;;;;;;;;;;5025764;28;43026;-83
2023/03/29 11:04:06;;;;;;;;;;;;;;;;;;5025663;28;43365;-83
2023/03/29 11:06:32;;;;;;;;;;;;;;;;;;5026455;28;42951;-83
2023/03/29 11:08:58;;;;;;;;;;;;;;;;;;5026472;28;43715;-83
2023/03/29 11:11:25;;;;;;;;;;;;;;;;;;5027406;28;42938;-83
2023/03/29 11:13:51;;;;;;;;;;;;;;;;;;5037428;28;42885;-84
2023/03/29 11:16:17;;;;;;;;;;;;;;;;;;5025483;28;43055;-82
2023/03/29 11:18:43;;;;;;;;;;;;;;;;;;5024654;28;43017;-83
2023/03/29 11:21:08;;;;;;;;;;;;;;;;;;5025434;28;43052;-83
2023/03/29 11:23:34;;;;;;;;;;;;;;;;;;5025848;28;42918;-84
2023/03/29 11:26:01;;;;;;;;;;;;;;;;;;5096954;22;43129;-83
2023/03/29 11:28:27;;;;;;;;;;;;;;;;;;4986561;28;43558;-83
2023/03/29 11:30:53;;;;;;;;;;;;;;;;;;4985966;28;42878;-83
2023/03/29 11:33:19;;;;;;;;;;;;;;;;;;4986379;28;44306;-83
2023/03/29 11:35:46;;;;;;;;;;;;;;;;;;5004165;28;42972;-83
2023/03/29 11:38:12;;;;;;;;;;;;;;;;;;4986534;28;43706;-83
2023/03/29 11:40:38;;;;;;;;;;;;;;;;;;5004247;28;42942;-83
2023/03/29 11:43:04;;;;;;;;;;;;;;;;;;5005012;28;44004;-83
2023/03/29 11:45:31;;;;;;;;;;;;;;;;;;5004888;28;42939;-83
2023/03/29 11:47:57;;;;;;;;;;;;;;;;;;5005130;28;43522;-84
2023/03/29 11:50:23;;;;;;;;;;;;;;;;;;4990219;28;42859;-83
2023/03/29 11:52:49;;;;;;;;;;;;;;;;;;4985836;28;43019;-83
2023/03/29 11:55:15;;;;;;;;;;;;;;;;;;4986199;28;42957;-83
2023/03/29 11:57:41;;;;;;;;;;;;;;;;;;4968179;28;45166;-82
2023/03/29 12:00:07;;;;;;;;;;;;;;;;;;4985758;28;43037;-83
2023/03/29 12:02:33;;;;;;;;;;;;;;;;;;4985853;28;43603;-83
2023/03/29 12:05:00;;;;;;;;;;;;;;;;;;4986042;28;43279;-82
2023/03/29 12:07:26;;;;;;;;;;;;;;;;;;4985673;28;42891;-82
2023/03/29 12:09:52;;;;;;;;;;;;;;;;;;4967565;28;43123;-83
2023/03/29 12:12:18;;;;;;;;;;;;;;;;;;4986207;28;44127;-82
2023/03/29 12:14:44;;;;;;;;;;;;;;;;;;4985830;28;42943;-82
2023/03/29 12:17:10;;;;;;;;;;;;;;;;;;4986912;28;43569;-82
2023/03/29 12:19:36;;;;;;;;;;;;;;;;;;4985939;28;42847;-82
2023/03/29 12:22:06;;;;;;;;;;;;;;;;;;4985369;28;43403;-82
2023/03/29 12:24:32;;;;;;;;;;;;;;;;;;4984892;28;43090;-83
2023/03/29 12:26:58;;;;;;;;;;;;;;;;;;4984949;28;42994;-82
2023/03/29 12:29:24;;;;;;;;;;;;;;;;;;4985237;28;44064;-82
2023/03/29 12:31:50;;;;;;;;;;;;;;;;;;4994910;28;43008;-83
2023/03/29 12:34:16;;;;;;;;;;;;;;;;;;4988334;28;42971;-83
2023/03/29 12:36:41;;;;;;;;;;;;;;;;;;4985203;28;43019;-83
2023/03/29 12:39:08;;;;;;;;;;;;;;;;;;4985498;28;43058;-83
2023/03/29 12:41:34;;;;;;;;;;;;;;;;;;4985802;28;43781;-83
2023/03/29 12:44:00;;;;;;;;;;;;;;;;;;4986211;28;42929;-83
2023/03/29 12:46:26;;;;;;;;;;;;;;;;;;4985378;28;42904;-82
2023/03/29 12:48:52;;;;;;;;;;;;;;;;;;4967145;28;43030;-83
2023/03/29 12:51:18;;;;;;;;;;;;;;;;;;4994916;28;42915;-83
2023/03/29 12:53:44;;;;;;;;;;;;;;;;;;5004589;28;42885;-83
2023/03/29 12:56:11;;;;;;;;;;;;;;;;;;5004410;28;43866;-83
2023/03/29 12:58:41;;;;;;;;;;;;;;;;;;4982556;28;42843;-83
2023/03/29 13:01:07;;;;;;;;;;;;;;;;;;4984124;28;43602;-82
2023/03/29 13:03:33;;;;;;;;;;;;;;;;;;4966966;28;43576;-83
2023/03/29 13:05:59;;;;;;;;;;;;;;;;;;4985063;28;42992;-83
2023/03/29 13:08:25;;;;;;;;;;;;;;;;;;5001380;28;42949;-84
2023/03/29 13:10:51;;;;;;;;;;;;;;;;;;5003814;28;42930;-83
2023/03/29 13:13:17;;;;;;;;;;;;;;;;;;4985108;28;43970;-83
2023/03/29 13:15:44;;;;;;;;;;;;;;;;;;5004494;28;43040;-83
2023/03/29 13:18:10;;;;;;;;;;;;;;;;;;4991122;28;42919;-83
2023/03/29 13:20:36;;;;;;;;;;;;;;;;;;5003216;28;42906;-82
2023/03/29 13:23:02;;;;;;;;;;;;;;;;;;5005810;28;43018;-83
2023/03/29 13:25:28;;;;;;;;;;;;;;;;;;5007722;28;43502;-83
2023/03/29 13:27:55;;;;;;;;;;;;;;;;;;4987257;28;42902;-82
2023/03/29 13:30:21;;;;;;;;;;;;;;;;;;5007048;28;42972;-83
2023/03/29 13:32:47;;;;;;;;;;;;;;;;;;5006424;28;42922;-83
2023/03/29 13:35:13;;;;;;;;;;;;;;;;;;5006870;28;43530;-82
2023/03/29 13:37:39;;;;;;;;;;;;;;;;;;5006322;28;42943;-83
2023/03/29 13:40:05;;;;;;;;;;;;;;;;;;5007389;28;43449;-83
2023/03/29 13:42:31;;;;;;;;;;;;;;;;;;5007121;28;42905;-83
2023/03/29 13:44:57;;;;;;;;;;;;;;;;;;4992801;28;43175;-83
2023/03/29 13:47:23;;;;;;;;;;;;;;;;;;4994719;28;42971;-82
2023/03/29 13:49:49;;;;;;;;;;;;;;;;;;5007062;28;43567;-82
2023/03/29 13:52:15;;;;;;;;;;;;;;;;;;5007607;28;43446;-83
2023/03/29 13:54:41;;;;;;;;;;;;;;;;;;5006789;28;43835;-83
2023/03/29 13:57:07;;;;;;;;;;;;;;;;;;5007427;28;42809;-83
2023/03/29 13:59:33;;;;;;;;;;;;;;;;;;5006487;28;43588;-83
2023/03/29 14:01:59;;;;;;;;;;;;;;;;;;5007025;28;42921;-83
2023/03/29 14:04:25;;;;;;;;;;;;;;;;;;5006419;28;43622;-82
2023/03/29 14:06:51;;;;;;;;;;;;;;;;;;5006242;28;43055;-83
2023/03/29 14:09:17;;;;;;;;;;;;;;;;;;5005660;28;43038;-83
2023/03/29 14:11:43;;;;;;;;;;;;;;;;;;5007006;28;42902;-82
2023/03/29 14:14:09;;;;;;;;;;;;;;;;;;5005806;28;44297;-83
2023/03/29 14:16:35;;;;;;;;;;;;;;;;;;4999039;28;43085;-83
2023/03/29 14:19:01;;;;;;;;;;;;;;;;;;4998285;28;43712;-82
2023/03/29 14:21:27;;;;;;;;;;;;;;;;;;4988997;28;42822;-83
2023/03/29 14:23:53;;;;;;;;;;;;;;;;;;4998035;28;43697;-83
2023/03/29 14:26:19;;;;;;;;;;;;;;;;;;5006159;28;42898;-83
2023/03/29 14:28:45;;;;;;;;;;;;;;;;;;5008081;28;42810;-83
2023/03/29 14:31:11;;;;;;;;;;;;;;;;;;5002158;28;42894;-82
2023/03/29 14:33:37;;;;;;;;;;;;;;;;;;4998008;28;42949;-83
2023/03/29 14:36:03;;;;;;;;;;;;;;;;;;4988318;28;43038;-83
2023/03/29 14:38:29;;;;;;;;;;;;;;;;;;4997914;28;43029;-83
2023/03/29 14:40:56;;;;;;;;;;;;;;;;;;5006240;28;43077;-83
2023/03/29 14:43:26;;;;;;;;;;;;;;;;;;5005492;28;64327;-83
2023/03/29 14:45:52;;;;;;;;;;;;;;;;;;5005724;28;43057;-81
2023/03/29 14:48:18;;;;;;;;;;;;;;;;;;5005425;28;42909;-83
2023/03/29 14:50:43;;;;;;;;;;;;;;;;;;5005507;28;42932;-82
2023/03/29 14:53:09;;;;;;;;;;;;;;;;;;4994871;28;43967;-83
2023/03/29 14:55:36;;;;;;;;;;;;;;;;;;4999900;28;43068;-83
2023/03/29 14:58:02;;;;;;;;;;;;;;;;;;4987305;28;43969;-83
2023/03/29 15:00:28;;;;;;;;;;;;;;;;;;4986798;28;42982;-82
2023/03/29 15:02:54;;;;;;;;;;;;;;;;;;4998761;28;42915;-82
2023/03/29 15:05:20;;;;;;;;;;;;;;;;;;4987257;28;43091;-82
2023/03/29 15:07:46;;;;;;;;;;;;;;;;;;4987239;28;42838;-82
2023/03/29 15:10:12;;;;;;;;;;;;;;;;;;4987327;28;42911;-82
2023/03/29 15:12:38;;;;;;;;;;;;;;;;;;4986205;28;43017;-82
2023/03/29 15:15:06;;;;;;;;;;;;;;;;;;4991866;28;43960;-81
2023/03/29 15:17:32;;;;;;;;;;;;;;;;;;4976603;28;43740;-82
2023/03/29 15:19:58;;;;;;;;;;;;;;;;;;4985944;28;42925;-82
2023/03/29 15:22:24;;;;;;;;;;;;;;;;;;4986132;28;43639;-83
2023/03/29 15:24:50;;;;;;;;;;;;;;;;;;4986630;28;42867;-83
2023/03/29 15:27:16;;;;;;;;;;;;;;;;;;4986817;28;43019;-83
2023/03/29 15:29:42;;;;;;;;;;;;;;;;;;4969724;28;42840;-82
2023/03/29 15:32:08;;;;;;;;;;;;;;;;;;4986687;28;43748;-84
2023/03/29 15:34:34;;;;;;;;;;;;;;;;;;4985847;28;43205;-84
2023/03/29 15:37:00;;;;;;;;;;;;;;;;;;4986805;28;42862;-83
2023/03/29 15:39:29;;;;;;;;;;;;;;;;;;4987437;28;43397;-82
2023/03/29 15:41:55;;;;;;;;;;;;;;;;;;4986464;28;43014;-83
2023/03/29 15:44:21;;;;;;;;;;;;;;;;;;4985170;28;42846;-82
2023/03/29 15:46:47;;;;;;;;;;;;;;;;;;4986841;28;44051;-83
2023/03/29 15:49:13;;;;;;;;;;;;;;;;;;4985369;28;42905;-83
2023/03/29 15:51:39;;;;;;;;;;;;;;;;;;4989572;28;43000;-83
2023/03/29 15:54:06;;;;;;;;;;;;;;;;;;4989526;28;42896;-83
2023/03/29 15:56:32;;;;;;;;;;;;;;;;;;4986222;28;43182;-83
2023/03/29 15:58:58;;;;;;;;;;;;;;;;;;4985597;28;42752;-83
2023/03/29 16:01:32;;;;;;;;;;;;;;;;;;4985744;28;43278;-84
2023/03/29 16:03:58;;;;;;;;;;;;;;;;;;4986101;28;42827;-82
2023/03/29 16:06:24;;;;;;;;;;;;;;;;;;4989298;28;43428;-83
2023/03/29 16:08:50;;;;;;;;;;;;;;;;;;4994371;28;43106;-83
2023/03/29 16:11:16;;;;;;;;;;;;;;;;;;5004764;28;43350;-83
2023/03/29 16:13:42;;;;;;;;;;;;;;;;;;5004733;28;43111;-84
2023/03/29 16:16:08;;;;;;;;;;;;;;;;;;5003796;28;43842;-83
2023/03/29 16:18:34;;;;;;;;;;;;;;;;;;5004851;28;42970;-83
2023/03/29 16:21:00;;;;;;;;;;;;;;;;;;5003683;28;43924;-83
2023/03/29 16:23:26;;;;;;;;;;;;;;;;;;5003115;28;42953;-84
2023/03/29 16:25:52;;;;;;;;;;;;;;;;;;4966850;28;44632;-83
2023/03/29 16:28:18;;;;;;;;;;;;;;;;;;4966755;28;42992;-84
2023/03/29 16:30:44;;;;;;;;;;;;;;;;;;4962994;28;45488;-84
2023/03/29 16:33:10;;;;;;;;;;;;;;;;;;4977239;28;43022;-84
2023/03/29 16:35:36;;;;;;;;;;;;;;;;;;4976374;28;42873;-84
2023/03/29 16:38:02;;;;;;;;;;;;;;;;;;4971274;28;42953;-83